Friday, November 24, 2017, 8:19 AM EST
Back to Local

KOXC, Oxford, Waterbury-oxford Airport

Location: Oxford, CT, United States Lat: 41.483
Local Time: 8:19 AM EST (13:19 GMT) Lon: -73.133
Time Zone: US/Eastern Elev: 725 ft

Show me the last for .
Show Decoded

2017-11-24 07:51 METAR KOXC 241251Z 00000KT 10SM CLR M02/M06 A3003 RMK AO2 SLP191 T10171056 =
2017-11-24 06:51 METAR KOXC 241151Z 00000KT 10SM CLR M03/M06 A3001 RMK AO2 SLP183 T10281061 11011
                 21039 53006 =
2017-11-24 05:51 METAR KOXC 241051Z AUTO 33003KT 10SM CLR M03/M07 A3000 RMK AO2 SLP179 T10281067
                 FZRANO =
2017-11-24 04:51 METAR KOXC 240951Z AUTO 00000KT 10SM CLR M03/M07 A2999 RMK AO2 SLP178 T10281067
                 FZRANO =
2017-11-24 03:51 METAR KOXC 240851Z AUTO 33003KT 10SM CLR M03/M07 A2999 RMK AO2 SLP177 T10331067
                 51000 FZRANO =
2017-11-24 02:51 METAR KOXC 240751Z AUTO 35004KT 10SM CLR M02/M07 A2999 RMK AO2 SLP176 T10171067
                 FZRANO =
2017-11-24 01:51 METAR KOXC 240651Z AUTO 30003KT 10SM CLR M01/M06 A3000 RMK AO2 SLP177 T10111061
                 FZRANO =
2017-11-24 00:51 METAR KOXC 240551Z AUTO 00000KT 10SM CLR M03/M07 A2999 RMK AO2 SLP177 T10331067
                 10000 21033 50000 FZRANO =
2017-11-23 23:51 METAR KOXC 240451Z AUTO 30003KT 10SM CLR M02/M07 A3000 RMK AO2 SLP179 T10171067
                 400391028 FZRANO =
2017-11-23 22:51 METAR KOXC 240351Z AUTO 29003KT 10SM OVC095 M02/M07 A3000 RMK AO2 SLP178
                 T10171067 FZRANO =
2017-11-23 21:51 METAR KOXC 240251Z AUTO 00000KT 10SM FEW095 M02/M07 A2999 RMK AO2 SLP178
                 T10171072 51003 FZRANO =
2017-11-23 20:51 METAR KOXC 240151Z 00000KT 10SM CLR M02/M07 A2999 RMK AO2 SLP173 T10221067 =
2017-11-23 19:51 METAR KOXC 240051Z 27003KT 10SM CLR 00/M07 A2999 RMK AO2 SLP178 T00001072 =
2017-11-23 18:51 METAR KOXC 232351Z 00000KT 10SM CLR M01/M06 A2998 RMK AO2 SLP173 T10111056 10039
                 21022 50001 =
2017-11-23 17:51 METAR KOXC 232251Z 00000KT 10SM CLR M01/M07 A2999 RMK AO2 SLP176 T10061072 =
2017-11-23 16:51 METAR KOXC 232151Z 28003KT 10SM CLR 02/M09 A2998 RMK AO2 SLP174 T00221089 =
2017-11-23 15:51 METAR KOXC 232051Z 31003KT 10SM CLR 03/M09 A2998 RMK AO2 SLP172 T00331089 55010
                 =
2017-11-23 14:51 METAR KOXC 231951Z VRB05KT 10SM CLR 04/M09 A2998 RMK AO2 SLP170 T00391089 =
2017-11-23 13:51 METAR KOXC 231851Z 31008KT 10SM CLR 03/M09 A2999 RMK AO2 SLP174 T00331094 =
2017-11-23 12:51 METAR KOXC 231751Z 31006KT 10SM CLR 03/M09 A3001 RMK AO2 SLP182 T00281089 10033
                 21028 58015 =
2017-11-23 11:51 METAR KOXC 231651Z 31008KT 270V350 10SM CLR 02/M08 A3002 RMK AO2 SLP185
                 T00221078 =
2017-11-23 10:51 METAR KOXC 231551Z VRB06KT 10SM CLR 01/M08 A3005 RMK AO2 SLP196 T00111078 =
2017-11-23 09:51 METAR KOXC 231451Z 32007KT 300V360 10SM CLR 00/M08 A3006 RMK AO2 SLP199
                 T00001078 50005 =
2017-11-23 08:51 METAR KOXC 231351Z VRB04KT 10SM CLR M01/M07 A3006 RMK AO2 SLP200 T10111072 =

Support USWX by starting your Amazon purchase here.